createdAt,value
2017-09-16T00:00:10.432Z,22.53
2017-09-16T00:02:38.084Z,21.73
2017-09-16T00:05:05.727Z,22.63
2017-09-16T00:07:33.376Z,22.17
2017-09-16T00:10:01.770Z,21.67
2017-09-16T00:12:29.424Z,19.77
2017-09-16T00:14:57.100Z,20.03
2017-09-16T00:17:24.742Z,22.37
2017-09-16T00:19:52.396Z,19.27
2017-09-16T00:22:20.856Z,24.03
2017-09-16T00:24:48.509Z,20.50
2017-09-16T00:27:16.216Z,25.97
2017-09-16T00:29:44.642Z,35.23
2017-09-16T00:32:12.287Z,19.97
2017-09-16T00:34:39.946Z,23.33
2017-09-16T00:37:07.600Z,19.73
2017-09-16T00:39:35.234Z,23.20
2017-09-16T00:42:03.629Z,32.73
2017-09-16T00:44:31.268Z,22.10
2017-09-16T00:46:58.955Z,25.77
2017-09-16T00:49:26.619Z,24.47
2017-09-16T00:51:54.788Z,26.90
2017-09-16T00:54:22.470Z,24.27
2017-09-16T00:56:50.117Z,24.83
2017-09-16T00:59:17.781Z,20.57
2017-09-16T01:01:45.425Z,20.07
2017-09-16T01:04:13.856Z,24.70
2017-09-16T01:06:41.520Z,19.80
2017-09-16T01:09:09.229Z,25.23
2017-09-16T01:11:37.620Z,24.67
2017-09-16T01:14:05.306Z,20.83
2017-09-16T01:16:32.966Z,20.97
2017-09-16T01:19:00.616Z,24.10
2017-09-16T01:21:28.275Z,25.77
2017-09-16T01:23:55.960Z,25.90
2017-09-16T01:26:23.600Z,24.53
2017-09-16T01:28:51.327Z,23.90
2017-09-16T01:31:18.979Z,26.27
2017-09-16T01:33:46.622Z,31.87
2017-09-16T01:36:14.265Z,28.20
2017-09-16T01:38:41.936Z,30.83
2017-09-16T01:41:09.580Z,31.20
2017-09-16T01:43:37.232Z,31.53
2017-09-16T01:46:04.869Z,26.90
2017-09-16T01:48:33.661Z,27.10
2017-09-16T01:51:01.312Z,31.07
2017-09-16T01:53:29.739Z,27.30
2017-09-16T01:55:57.396Z,30.13
2017-09-16T01:58:25.035Z,28.83
2017-09-16T02:00:52.697Z,30.80
2017-09-16T02:03:20.354Z,27.50
2017-09-16T02:05:48.009Z,28.70
2017-09-16T02:08:16.430Z,32.47
2017-09-16T02:10:44.096Z,36.03
2017-09-16T02:13:11.726Z,34.67
2017-09-16T02:15:40.153Z,34.80
2017-09-16T02:18:07.791Z,27.33
2017-09-16T02:20:35.447Z,27.50
2017-09-16T02:23:03.079Z,25.43
2017-09-16T02:25:31.512Z,31.83
2017-09-16T02:27:59.159Z,26.40
2017-09-16T02:30:26.838Z,24.03
2017-09-16T02:32:54.489Z,26.10
2017-09-16T02:35:22.130Z,25.53
2017-09-16T02:37:49.767Z,26.07
2017-09-16T02:40:18.175Z,30.30
2017-09-16T02:42:45.841Z,28.13
2017-09-16T02:45:13.492Z,28.23
2017-09-16T02:47:41.121Z,30.43
2017-09-16T02:50:09.528Z,29.47
2017-09-16T02:52:37.161Z,27.20
2017-09-16T02:55:04.808Z,26.00
2017-09-16T02:57:32.481Z,33.13
2017-09-16T03:00:00.164Z,26.57
2017-09-16T03:02:27.837Z,28.17
2017-09-16T03:04:55.470Z,27.70
2017-09-16T03:07:23.106Z,28.20
2017-09-16T03:09:50.754Z,35.27
2017-09-16T03:12:18.386Z,28.17
2017-09-16T03:14:46.032Z,23.20
2017-09-16T03:17:14.430Z,24.20
2017-09-16T03:19:42.077Z,24.87
2017-09-16T03:22:10.485Z,26.90
2017-09-16T03:24:38.175Z,29.63
2017-09-16T03:27:05.896Z,28.70
2017-09-16T03:29:33.544Z,28.20
2017-09-16T03:32:01.233Z,21.60
2017-09-16T03:34:28.869Z,25.87
2017-09-16T03:36:56.513Z,26.03
2017-09-16T03:39:24.157Z,22.17
2017-09-16T03:41:51.814Z,22.43
2017-09-16T03:44:19.509Z,25.93
2017-09-16T03:46:47.148Z,21.60
2017-09-16T03:49:14.765Z,29.53
2017-09-16T03:51:42.404Z,23.60
2017-09-16T03:54:10.063Z,22.20
2017-09-16T03:56:37.703Z,21.60
2017-09-16T03:59:05.337Z,24.10
2017-09-16T04:04:40.740Z,22.57
2017-09-16T04:07:08.369Z,19.90
2017-09-16T04:09:36.006Z,20.50
2017-09-16T04:12:03.658Z,20.70
2017-09-16T04:14:31.323Z,21.17
2017-09-16T04:16:58.970Z,21.53
2017-09-16T04:19:26.620Z,21.33
2017-09-16T04:21:54.894Z,24.37
2017-09-16T04:24:22.576Z,20.87
2017-09-16T04:26:50.232Z,24.97
2017-09-16T04:29:17.870Z,24.07
2017-09-16T04:31:45.512Z,22.67
2017-09-16T04:34:13.181Z,21.83
2017-09-16T04:36:40.817Z,19.13
2017-09-16T04:39:08.466Z,19.30
2017-09-16T04:41:36.133Z,20.93
2017-09-16T04:44:03.822Z,17.63
2017-09-16T04:46:31.553Z,19.00
2017-09-16T04:48:59.230Z,22.07
2017-09-16T04:51:26.865Z,23.83
2017-09-16T04:53:54.519Z,20.37
2017-09-16T04:56:22.165Z,21.47
2017-09-16T04:58:49.831Z,20.30
2017-09-16T05:01:17.488Z,19.30
2017-09-16T05:03:45.877Z,17.33
2017-09-16T05:06:13.509Z,21.43
2017-09-16T05:08:41.161Z,17.20
2017-09-16T05:11:08.800Z,21.70
2017-09-16T05:13:36.474Z,23.60
2017-09-16T05:16:04.125Z,22.30
2017-09-16T05:18:31.785Z,20.00
2017-09-16T05:20:59.413Z,21.90
2017-09-16T05:23:27.037Z,23.40
2017-09-16T05:25:54.669Z,31.40
2017-09-16T05:28:22.333Z,24.77
2017-09-16T05:30:49.969Z,17.87
2017-09-16T05:33:18.371Z,22.20
2017-09-16T05:35:46.034Z,20.60
2017-09-16T05:38:13.690Z,20.80
2017-09-16T05:40:41.346Z,23.87
2017-09-16T05:43:09.003Z,18.83
2017-09-16T05:45:36.641Z,22.43
2017-09-16T05:48:05.056Z,21.53
2017-09-16T05:50:32.715Z,25.47
2017-09-16T05:53:00.356Z,28.73
2017-09-16T05:55:28.024Z,19.83
2017-09-16T05:57:55.752Z,26.40
2017-09-16T06:00:23.442Z,24.03
2017-09-16T06:02:51.107Z,22.97
2017-09-16T06:05:18.765Z,24.30
2017-09-16T06:07:46.420Z,20.20
2017-09-16T06:10:14.057Z,21.93
2017-09-16T06:12:41.693Z,20.50
2017-09-16T06:15:09.392Z,25.23
2017-09-16T06:17:37.020Z,17.53
2017-09-16T06:20:04.682Z,24.80
2017-09-16T06:22:32.343Z,23.63
2017-09-16T06:25:00.005Z,22.87
2017-09-16T06:27:29.561Z,17.63
2017-09-16T06:29:57.189Z,21.00
2017-09-16T06:32:24.848Z,19.63
2017-09-16T06:34:52.487Z,29.00
2017-09-16T06:37:20.172Z,21.10
2017-09-16T06:39:47.825Z,21.60
2017-09-16T06:42:15.485Z,19.77
2017-09-16T06:44:43.139Z,21.07
2017-09-16T06:47:10.800Z,23.30
2017-09-16T06:49:38.466Z,24.90
2017-09-16T06:52:06.117Z,17.73
2017-09-16T06:54:33.869Z,17.97
2017-09-16T06:57:01.533Z,22.50
2017-09-16T06:59:29.172Z,23.17
2017-09-16T07:01:56.813Z,20.40
2017-09-16T07:04:25.261Z,24.23
2017-09-16T07:06:52.937Z,25.50
2017-09-16T07:09:30.489Z,24.67
2017-09-16T07:13:33.743Z,21.83
2017-09-16T07:16:01.401Z,20.93
2017-09-16T07:18:29.796Z,22.37
2017-09-16T07:20:58.207Z,20.90
2017-09-16T07:23:25.890Z,19.97
2017-09-16T07:25:53.554Z,16.17
2017-09-16T07:28:21.292Z,25.40
2017-09-16T07:30:48.956Z,22.93
2017-09-16T07:33:17.334Z,23.47
2017-09-16T07:35:44.979Z,21.23
2017-09-16T07:38:12.683Z,18.70
2017-09-16T07:40:40.364Z,17.03
2017-09-16T07:43:08.029Z,17.00
2017-09-16T07:45:35.713Z,24.93
2017-09-16T07:48:03.340Z,17.70
2017-09-16T07:50:30.984Z,21.13
2017-09-16T07:52:58.675Z,16.13
2017-09-16T07:55:26.953Z,19.07
2017-09-16T07:57:54.609Z,18.20
2017-09-16T08:00:22.285Z,15.23
2017-09-16T08:02:49.988Z,17.10
2017-09-16T08:05:17.720Z,23.40
2017-09-16T08:07:45.361Z,15.00
2017-09-16T08:10:12.998Z,13.33
2017-09-16T08:12:40.661Z,18.03
2017-09-16T08:15:08.348Z,15.63
2017-09-16T08:17:36.037Z,17.23
2017-09-16T08:20:03.726Z,17.90
2017-09-16T08:22:31.389Z,17.73
2017-09-16T08:24:59.037Z,14.63
2017-09-16T08:27:26.728Z,18.30
2017-09-16T08:29:54.396Z,17.67
2017-09-16T08:32:22.039Z,18.37
2017-09-16T08:34:49.718Z,17.87
2017-09-16T08:37:17.379Z,19.00
2017-09-16T08:39:45.116Z,19.00
2017-09-16T08:42:12.758Z,21.00
2017-09-16T08:44:40.421Z,23.80
2017-09-16T08:47:08.849Z,15.20
2017-09-16T08:49:36.516Z,19.07
2017-09-16T08:52:04.181Z,16.17
2017-09-16T08:54:31.817Z,11.83
2017-09-16T08:56:59.488Z,13.77
2017-09-16T08:59:28.535Z,17.97
2017-09-16T09:01:56.217Z,16.50
2017-09-16T09:04:24.631Z,13.00
2017-09-16T09:06:52.289Z,15.03
2017-09-16T09:09:19.917Z,13.40
2017-09-16T09:11:47.577Z,11.30
2017-09-16T09:14:15.226Z,9.87
2017-09-16T09:16:42.873Z,16.03
2017-09-16T09:19:10.529Z,14.13
2017-09-16T09:21:38.157Z,11.50
2017-09-16T09:24:06.550Z,15.40
2017-09-16T09:26:42.080Z,13.17
2017-09-16T09:29:09.713Z,16.77
2017-09-16T09:31:37.422Z,12.47
2017-09-16T09:34:09.503Z,13.37
2017-09-16T09:36:40.380Z,20.07
2017-09-16T09:39:08.124Z,16.73
2017-09-16T09:41:35.832Z,18.33
2017-09-16T09:44:03.538Z,19.50
2017-09-16T09:46:31.259Z,17.70
2017-09-16T09:48:59.050Z,15.70
2017-09-16T09:51:27.717Z,16.17
2017-09-16T09:53:55.426Z,14.20
2017-09-16T09:56:23.917Z,12.67
2017-09-16T09:58:54.652Z,13.43
2017-09-16T10:01:22.281Z,16.80
2017-09-16T10:03:49.990Z,12.37
2017-09-16T10:06:17.701Z,12.43
2017-09-16T10:08:45.569Z,14.30
2017-09-16T10:11:13.226Z,12.33
2017-09-16T10:13:40.893Z,11.73
2017-09-16T10:19:08.773Z,15.97
2017-09-16T10:21:36.422Z,13.40
2017-09-16T10:24:04.092Z,13.23
2017-09-16T10:26:32.670Z,8.30
2017-09-16T10:29:00.313Z,16.70
2017-09-16T10:31:27.953Z,10.60
2017-09-16T10:33:55.600Z,10.37
2017-09-16T10:36:23.244Z,8.53
2017-09-16T10:38:50.905Z,11.27
2017-09-16T10:41:19.318Z,10.50
2017-09-16T10:43:47.092Z,12.80
2017-09-16T10:46:15.496Z,12.20
2017-09-16T10:48:43.164Z,9.93
2017-09-16T10:51:10.825Z,13.60
2017-09-16T10:53:38.501Z,10.03
2017-09-16T10:56:06.134Z,12.73
2017-09-16T10:58:33.772Z,12.70
2017-09-16T11:01:02.412Z,9.60
2017-09-16T11:03:30.052Z,12.57
2017-09-16T11:05:57.712Z,8.87
2017-09-16T11:08:25.392Z,7.73
2017-09-16T11:10:53.055Z,10.20
2017-09-16T11:13:20.747Z,8.70
2017-09-16T11:15:48.389Z,6.63
2017-09-16T11:18:17.003Z,7.63
2017-09-16T11:20:44.680Z,7.57
2017-09-16T11:23:12.316Z,6.17
2017-09-16T11:25:39.972Z,7.27
2017-09-16T11:30:59.917Z,5.50
2017-09-16T11:33:27.583Z,5.13
2017-09-16T11:35:55.271Z,7.10
2017-09-16T11:38:23.049Z,6.33
2017-09-16T11:40:50.713Z,5.10
2017-09-16T11:43:21.437Z,5.07
2017-09-16T11:45:49.125Z,5.57
2017-09-16T11:48:16.777Z,6.33
2017-09-16T11:50:44.420Z,7.43
2017-09-16T11:53:12.101Z,5.43
2017-09-16T11:55:39.749Z,5.87
2017-09-16T11:58:07.371Z,6.37
2017-09-16T12:00:35.037Z,6.33
2017-09-16T12:03:02.673Z,5.23
2017-09-16T12:05:30.312Z,4.50
2017-09-16T12:07:57.940Z,7.27
2017-09-16T12:10:26.356Z,4.93
2017-09-16T12:12:54.001Z,5.73
2017-09-16T12:15:21.681Z,8.60
2017-09-16T12:17:49.366Z,4.33
2017-09-16T12:20:17.731Z,5.73
2017-09-16T12:22:46.196Z,4.70
2017-09-16T12:25:14.358Z,5.30
2017-09-16T12:30:50.957Z,2.97
2017-09-16T12:33:18.607Z,3.63
2017-09-16T12:35:46.250Z,5.07
2017-09-16T12:38:13.911Z,5.03
2017-09-16T12:40:41.552Z,2.80
2017-09-16T12:43:09.198Z,2.87
2017-09-16T12:45:36.861Z,2.70
2017-09-16T12:48:04.573Z,5.33
2017-09-16T12:50:32.288Z,5.10
2017-09-16T12:53:00.748Z,4.20
2017-09-16T12:55:28.458Z,3.47
2017-09-16T12:57:57.129Z,6.30
2017-09-16T13:03:15.297Z,3.30
2017-09-16T13:05:42.956Z,5.90
2017-09-16T13:08:10.817Z,2.37
2017-09-16T13:10:38.566Z,2.97
2017-09-16T13:13:06.279Z,5.37
2017-09-16T13:15:33.980Z,3.03
2017-09-16T13:18:02.417Z,2.73
2017-09-16T13:20:30.061Z,3.03
2017-09-16T13:22:57.710Z,3.67
2017-09-16T13:25:25.461Z,14.10
2017-09-16T13:27:53.165Z,2.67
2017-09-16T13:30:20.861Z,3.93
2017-09-16T13:32:48.513Z,3.60
2017-09-16T13:35:16.330Z,2.90
2017-09-16T13:37:44.654Z,2.53
2017-09-16T13:40:12.372Z,2.07
2017-09-16T13:42:40.056Z,2.90
2017-09-16T13:45:07.745Z,2.13
2017-09-16T13:47:35.531Z,2.40
2017-09-16T13:50:03.794Z,2.77
2017-09-16T13:52:31.474Z,2.20
2017-09-16T13:54:59.400Z,4.47
2017-09-16T13:57:27.057Z,5.10
2017-09-16T13:59:54.727Z,4.10
2017-09-16T14:45:17.588Z,2.17
2017-09-16T14:47:45.258Z,2.87
2017-09-16T14:58:54.404Z,1.83
2017-09-16T15:01:22.064Z,3.87
2017-09-16T15:03:49.739Z,2.10
2017-09-16T15:06:17.413Z,5.60
2017-09-16T15:08:45.113Z,4.67
2017-09-16T15:11:13.549Z,3.07
2017-09-16T15:13:41.213Z,7.90
2017-09-16T15:16:08.877Z,3.13
2017-09-16T15:18:36.612Z,3.60
2017-09-16T15:21:04.289Z,3.27
2017-09-16T15:23:31.988Z,3.07
2017-09-16T15:25:59.651Z,5.30
2017-09-16T15:28:27.327Z,2.30
2017-09-16T15:31:00.439Z,2.77
2017-09-16T15:33:28.144Z,2.43
2017-09-16T15:35:55.809Z,3.40
2017-09-16T15:38:23.476Z,2.90
2017-09-16T15:40:51.129Z,3.17
2017-09-16T15:43:18.796Z,1.93
2017-09-16T15:45:46.464Z,5.33
2017-09-16T15:48:14.132Z,19.50
2017-09-16T15:50:41.792Z,16.70
2017-09-16T15:53:09.457Z,20.37
2017-09-16T15:55:37.162Z,21.37
2017-09-16T15:58:04.914Z,3.93
2017-09-16T16:00:36.781Z,3.03
2017-09-16T16:03:04.731Z,5.43
2017-09-16T16:10:25.747Z,2.20
2017-09-16T16:12:54.334Z,2.90
2017-09-16T16:15:22.141Z,3.07
2017-09-16T16:17:50.088Z,10.60
2017-09-16T16:20:18.982Z,7.53
2017-09-16T16:22:46.694Z,6.70
2017-09-16T16:25:14.622Z,4.07
2017-09-16T16:27:42.477Z,3.90
2017-09-16T16:30:11.094Z,6.60
2017-09-16T16:32:38.934Z,8.37
2017-09-16T16:35:07.772Z,4.47
2017-09-16T16:37:35.571Z,6.90
2017-09-16T16:40:03.373Z,10.73
2017-09-16T16:42:31.202Z,8.60
2017-09-16T16:48:07.036Z,9.10
2017-09-16T16:50:49.489Z,6.00
2017-09-16T16:53:19.062Z,7.03
2017-09-16T16:55:47.269Z,5.70
2017-09-16T17:06:46.247Z,6.03
2017-09-16T17:09:14.373Z,7.03
2017-09-16T17:11:42.121Z,7.43
2017-09-16T17:14:09.875Z,11.97
2017-09-16T17:16:37.664Z,5.93
2017-09-16T17:27:42.172Z,8.50
2017-09-16T18:34:26.106Z,14.97
2017-09-16T18:36:54.051Z,13.60
2017-09-16T18:39:24.076Z,12.50
2017-09-16T18:56:18.266Z,8.40
2017-09-16T18:58:46.255Z,14.60
2017-09-16T19:01:14.294Z,13.33
2017-09-16T19:03:43.110Z,14.27
2017-09-16T19:06:11.270Z,13.97
2017-09-16T19:08:39.267Z,15.70
2017-09-16T19:11:07.345Z,13.97
2017-09-16T19:13:35.356Z,11.80
2017-09-16T19:16:03.393Z,14.07
2017-09-16T19:18:31.619Z,17.60
2017-09-16T19:20:59.595Z,11.40
2017-09-16T19:23:27.612Z,12.73
2017-09-16T19:25:56.513Z,13.30
2017-09-16T19:28:25.316Z,13.07
2017-09-16T19:30:54.106Z,11.30
2017-09-16T19:33:22.174Z,14.37
2017-09-16T19:35:50.202Z,13.27
2017-09-16T19:38:18.250Z,17.87
2017-09-16T19:46:39.831Z,21.00
2017-09-16T19:49:07.920Z,18.80
2017-09-16T19:51:35.977Z,19.20
2017-09-16T19:54:04.776Z,17.93
2017-09-16T19:56:32.904Z,21.87
2017-09-16T19:59:00.938Z,19.60
2017-09-16T20:01:28.957Z,22.97
2017-09-16T20:03:57.027Z,17.27
2017-09-16T20:06:25.037Z,27.43
2017-09-16T20:08:53.931Z,21.00
2017-09-16T20:11:22.743Z,19.70
2017-09-16T20:13:50.812Z,19.53
2017-09-16T20:16:18.886Z,19.97
2017-09-16T20:18:46.935Z,23.80
2017-09-16T20:21:14.964Z,22.77
2017-09-16T20:23:43.037Z,26.43
2017-09-16T20:26:11.104Z,24.10
2017-09-16T20:28:39.204Z,21.20
2017-09-16T20:31:08.479Z,23.67
2017-09-16T20:33:37.412Z,26.40
2017-09-16T20:36:05.338Z,25.67
2017-09-16T20:38:33.558Z,23.40
2017-09-16T20:41:01.568Z,25.40
2017-09-16T20:43:30.757Z,21.60
2017-09-16T20:45:58.816Z,22.53
2017-09-16T20:48:26.925Z,22.30
2017-09-16T20:50:55.060Z,22.50
2017-09-16T20:53:23.155Z,20.37
2017-09-16T20:55:51.183Z,25.40
2017-09-16T20:58:19.130Z,20.93
2017-09-16T21:00:47.081Z,20.73
2017-09-16T21:03:15.124Z,20.53
2017-09-16T21:05:42.889Z,23.20
2017-09-16T21:08:10.570Z,20.20
2017-09-16T21:10:38.338Z,23.87
2017-09-16T21:13:06.048Z,23.50
2017-09-16T21:15:34.536Z,24.07
2017-09-16T21:18:02.972Z,24.00
2017-09-16T21:20:30.706Z,23.83
2017-09-16T21:22:58.432Z,26.77
2017-09-16T21:25:26.073Z,29.70
2017-09-16T21:27:54.510Z,24.53
2017-09-16T21:30:22.253Z,25.30
2017-09-16T21:32:50.822Z,25.50
2017-09-16T21:35:19.225Z,24.47
2017-09-16T21:37:46.874Z,26.47
2017-09-16T21:40:15.906Z,39.47
2017-09-16T21:42:43.553Z,31.53
2017-09-16T21:45:12.084Z,30.37
2017-09-16T21:47:39.722Z,32.53
2017-09-16T21:50:07.430Z,29.20
2017-09-16T21:52:35.861Z,28.17
2017-09-16T21:55:03.542Z,28.17
2017-09-16T21:57:31.225Z,31.97
2017-09-16T21:59:59.665Z,26.03
2017-09-16T22:02:27.352Z,27.00
2017-09-16T22:04:54.989Z,26.10
2017-09-16T22:07:22.615Z,25.23
2017-09-16T22:09:50.274Z,24.10
2017-09-16T22:12:17.918Z,22.73
2017-09-16T22:14:45.556Z,25.77
2017-09-16T22:17:13.188Z,24.03
2017-09-16T22:19:40.804Z,21.90
2017-09-16T22:22:09.194Z,22.93
2017-09-16T22:24:37.574Z,22.20
2017-09-16T22:27:05.969Z,27.37
2017-09-16T22:29:33.612Z,24.37
2017-09-16T22:32:01.245Z,24.87
2017-09-16T22:34:28.862Z,22.93
2017-09-16T22:36:56.501Z,20.23
2017-09-16T22:39:24.129Z,22.27
2017-09-16T22:41:51.739Z,22.63
2017-09-16T22:44:19.356Z,24.00
2017-09-16T22:46:46.964Z,22.17
2017-09-16T22:49:14.621Z,20.93
2017-09-16T22:51:42.373Z,20.50
2017-09-16T22:54:09.988Z,22.07
2017-09-16T22:56:37.612Z,20.50
2017-09-16T22:59:05.233Z,15.97
2017-09-16T23:01:33.616Z,20.00
2017-09-16T23:04:02.020Z,19.70
2017-09-16T23:06:29.684Z,20.83
2017-09-16T23:08:57.307Z,19.70
2017-09-16T23:11:24.944Z,18.50
2017-09-16T23:13:52.587Z,19.90
2017-09-16T23:16:20.199Z,21.03
2017-09-16T23:18:49.772Z,22.20
2017-09-16T23:21:17.401Z,22.20
2017-09-16T23:23:45.029Z,21.10
2017-09-16T23:26:13.426Z,23.73
2017-09-16T23:28:41.059Z,19.77
2017-09-16T23:31:08.696Z,22.27
2017-09-16T23:33:36.388Z,18.87
2017-09-16T23:36:04.007Z,18.20
2017-09-16T23:38:31.632Z,22.20
2017-09-16T23:41:00.038Z,20.03
2017-09-16T23:43:27.659Z,17.77
2017-09-16T23:45:56.050Z,21.47
2017-09-16T23:48:23.690Z,16.70
2017-09-16T23:50:52.106Z,16.83
2017-09-16T23:53:19.772Z,18.77
2017-09-16T23:55:47.394Z,15.80
2017-09-16T23:58:15.784Z,16.40
